sensor_id;sensor_type;location;lat;lon;timestamp;pressure;altitude;pressure_sealevel;temperature;humidity
40502;BME280;29631;49.168;9.848;2023-05-21T00:01:41;96303.75;;;23.35;81.38
40502;BME280;29631;49.168;9.848;2023-05-21T00:04:07;96315.28;;;23.36;81.22
40502;BME280;29631;49.168;9.848;2023-05-21T00:06:34;96318.50;;;23.38;80.82
40502;BME280;29631;49.168;9.848;2023-05-21T00:09:04;96295.31;;;23.23;81.25
40502;BME280;29631;49.168;9.848;2023-05-21T00:11:31;96305.63;;;23.35;80.55
40502;BME280;29631;49.168;9.848;2023-05-21T00:13:57;96314.50;;;23.35;80.94
40502;BME280;29631;49.168;9.848;2023-05-21T00:16:24;96295.53;;;23.27;80.95
40502;BME280;29631;49.168;9.848;2023-05-21T00:18:49;96283.81;;;23.18;81.12
40502;BME280;29631;49.168;9.848;2023-05-21T00:21:16;96288.13;;;23.19;81.19
40502;BME280;29631;49.168;9.848;2023-05-21T00:23:45;96279.63;;;23.12;81.44
40502;BME280;29631;49.168;9.848;2023-05-21T00:26:12;96294.28;;;23.19;81.21
40502;BME280;29631;49.168;9.848;2023-05-21T00:28:38;96290.81;;;23.19;81.53
40502;BME280;29631;49.168;9.848;2023-05-21T00:31:04;96285.22;;;23.15;81.35
40502;BME280;29631;49.168;9.848;2023-05-21T00:33:30;96276.13;;;23.11;81.56
40502;BME280;29631;49.168;9.848;2023-05-21T00:35:56;96263.38;;;22.98;81.22
40502;BME280;29631;49.168;9.848;2023-05-21T00:38:22;96284.91;;;23.17;81.59
40502;BME280;29631;49.168;9.848;2023-05-21T00:40:49;96281.78;;;23.10;81.45
40502;BME280;29631;49.168;9.848;2023-05-21T00:43:15;96277.81;;;23.07;81.38
40502;BME280;29631;49.168;9.848;2023-05-21T00:45:41;96277.59;;;23.04;81.49
40502;BME280;29631;49.168;9.848;2023-05-21T00:48:12;96274.59;;;23.05;81.37
40502;BME280;29631;49.168;9.848;2023-05-21T00:50:40;96253.56;;;22.89;81.71
40502;BME280;29631;49.168;9.848;2023-05-21T00:53:07;96257.78;;;22.95;81.65
40502;BME280;29631;49.168;9.848;2023-05-21T00:55:36;96262.59;;;22.98;81.50
40502;BME280;29631;49.168;9.848;2023-05-21T00:58:02;96275.19;;;23.02;81.51
40502;BME280;29631;49.168;9.848;2023-05-21T01:00:32;96268.75;;;22.98;81.45
40502;BME280;29631;49.168;9.848;2023-05-21T01:02:59;96251.47;;;22.86;81.90
40502;BME280;29631;49.168;9.848;2023-05-21T01:05:25;96254.38;;;22.89;81.78
40502;BME280;29631;49.168;9.848;2023-05-21T01:07:51;96266.97;;;22.94;81.84
40502;BME280;29631;49.168;9.848;2023-05-21T01:10:17;96255.16;;;22.90;81.58
40502;BME280;29631;49.168;9.848;2023-05-21T01:12:43;96270.13;;;22.96;82.00
40502;BME280;29631;49.168;9.848;2023-05-21T01:15:10;96251.78;;;22.84;81.86
40502;BME280;29631;49.168;9.848;2023-05-21T01:17:37;96247.78;;;22.82;81.69
40502;BME280;29631;49.168;9.848;2023-05-21T01:20:05;96238.75;;;22.73;81.73
40502;BME280;29631;49.168;9.848;2023-05-21T01:22:55;96252.56;;;22.85;82.19
40502;BME280;29631;49.168;9.848;2023-05-21T01:25:22;96263.00;;;22.86;81.66
40502;BME280;29631;49.168;9.848;2023-05-21T01:27:49;96261.72;;;22.84;82.28
40502;BME280;29631;49.168;9.848;2023-05-21T01:30:17;96265.47;;;22.83;81.82
40502;BME280;29631;49.168;9.848;2023-05-21T01:33:32;96251.31;;;22.77;82.24
40502;BME280;29631;49.168;9.848;2023-05-21T01:36:17;96227.13;;;22.59;81.98
40502;BME280;29631;49.168;9.848;2023-05-21T01:39:10;96253.19;;;22.77;82.01
40502;BME280;29631;49.168;9.848;2023-05-21T01:41:43;96249.59;;;22.68;82.04
40502;BME280;29631;49.168;9.848;2023-05-21T01:44:10;96250.50;;;22.77;82.05
40502;BME280;29631;49.168;9.848;2023-05-21T01:46:36;96234.03;;;22.65;81.58
40502;BME280;29631;49.168;9.848;2023-05-21T01:49:04;96250.66;;;22.67;82.36
40502;BME280;29631;49.168;9.848;2023-05-21T01:51:31;96221.53;;;22.56;82.76
40502;BME280;29631;49.168;9.848;2023-05-21T01:53:57;96249.81;;;22.71;82.36
40502;BME280;29631;49.168;9.848;2023-05-21T01:56:22;96225.59;;;22.53;82.37
40502;BME280;29631;49.168;9.848;2023-05-21T01:58:51;96235.47;;;22.58;82.55
40502;BME280;29631;49.168;9.848;2023-05-21T02:01:16;96249.16;;;22.61;82.28
40502;BME280;29631;49.168;9.848;2023-05-21T02:03:42;96251.25;;;22.64;82.50
40502;BME280;29631;49.168;9.848;2023-05-21T02:06:08;96242.69;;;22.62;82.48
40502;BME280;29631;49.168;9.848;2023-05-21T02:08:33;96228.84;;;22.50;82.18
40502;BME280;29631;49.168;9.848;2023-05-21T02:10:59;96248.31;;;22.61;82.41
40502;BME280;29631;49.168;9.848;2023-05-21T02:13:25;96257.78;;;22.58;82.50
40502;BME280;29631;49.168;9.848;2023-05-21T02:15:51;96254.78;;;22.60;82.27
40502;BME280;29631;49.168;9.848;2023-05-21T02:18:19;96250.53;;;22.59;82.50
40502;BME280;29631;49.168;9.848;2023-05-21T02:20:46;96229.75;;;22.46;82.30
40502;BME280;29631;49.168;9.848;2023-05-21T02:23:12;96249.00;;;22.53;82.41
40502;BME280;29631;49.168;9.848;2023-05-21T02:25:37;96258.38;;;22.55;82.70
40502;BME280;29631;49.168;9.848;2023-05-21T02:28:03;96248.19;;;22.52;82.81
40502;BME280;29631;49.168;9.848;2023-05-21T02:30:29;96177.81;;;22.08;82.39
40502;BME280;29631;49.168;9.848;2023-05-21T02:32:55;96258.16;;;22.52;82.78
40502;BME280;29631;49.168;9.848;2023-05-21T02:35:23;96192.78;;;22.14;82.69
40502;BME280;29631;49.168;9.848;2023-05-21T02:37:49;96240.75;;;22.44;82.95
40502;BME280;29631;49.168;9.848;2023-05-21T02:40:15;96244.75;;;22.47;82.55
40502;BME280;29631;49.168;9.848;2023-05-21T02:42:41;96230.91;;;22.40;82.47
40502;BME280;29631;49.168;9.848;2023-05-21T02:45:11;96240.31;;;22.37;83.14
40502;BME280;29631;49.168;9.848;2023-05-21T02:47:36;96170.97;;;21.97;82.88
40502;BME280;29631;49.168;9.848;2023-05-21T02:50:07;96199.16;;;22.18;83.13
40502;BME280;29631;49.168;9.848;2023-05-21T02:52:33;96186.16;;;22.07;83.21
40502;BME280;29631;49.168;9.848;2023-05-21T02:54:59;96211.00;;;22.17;83.04
40502;BME280;29631;49.168;9.848;2023-05-21T02:57:25;96221.91;;;22.26;82.89
40502;BME280;29631;49.168;9.848;2023-05-21T02:59:51;96251.06;;;22.37;82.82
40502;BME280;29631;49.168;9.848;2023-05-21T03:02:16;96225.34;;;22.31;83.54
40502;BME280;29631;49.168;9.848;2023-05-21T03:04:42;96244.91;;;22.37;83.03
40502;BME280;29631;49.168;9.848;2023-05-21T03:07:13;96231.28;;;22.28;83.21
40502;BME280;29631;49.168;9.848;2023-05-21T03:09:40;96224.06;;;22.24;83.03
40502;BME280;29631;49.168;9.848;2023-05-21T03:12:09;96233.97;;;22.28;82.88
40502;BME280;29631;49.168;9.848;2023-05-21T03:14:35;96230.53;;;22.23;82.58
40502;BME280;29631;49.168;9.848;2023-05-21T03:17:01;96225.56;;;22.11;83.36
40502;BME280;29631;49.168;9.848;2023-05-21T03:19:34;96231.38;;;22.18;83.11
40502;BME280;29631;49.168;9.848;2023-05-21T03:22:02;96227.63;;;22.19;83.47
40502;BME280;29631;49.168;9.848;2023-05-21T03:24:28;96211.72;;;22.04;nan
40502;BME280;29631;49.168;9.848;2023-05-21T03:26:58;96229.00;;;22.17;82.97
40502;BME280;29631;49.168;9.848;2023-05-21T03:29:26;96219.19;;;22.07;83.43
40502;BME280;29631;49.168;9.848;2023-05-21T03:31:53;96227.16;;;22.12;83.00
40502;BME280;29631;49.168;9.848;2023-05-21T03:34:19;96231.53;;;22.08;83.11
40502;BME280;29631;49.168;9.848;2023-05-21T03:36:46;96240.09;;;22.10;83.10
40502;BME280;29631;49.168;9.848;2023-05-21T03:39:12;96235.81;;;22.09;83.30
40502;BME280;29631;49.168;9.848;2023-05-21T03:41:37;96237.13;;;22.12;83.47
40502;BME280;29631;49.168;9.848;2023-05-21T03:44:03;96233.13;;;22.09;83.50
40502;BME280;29631;49.168;9.848;2023-05-21T03:46:29;96195.88;;;21.80;83.44
40502;BME280;29631;49.168;9.848;2023-05-21T03:48:56;96231.06;;;22.01;83.37
40502;BME280;29631;49.168;9.848;2023-05-21T03:51:23;96222.50;;;21.99;83.58
40502;BME280;29631;49.168;9.848;2023-05-21T03:53:50;96237.44;;;22.05;83.80
40502;BME280;29631;49.168;9.848;2023-05-21T03:56:16;96243.63;;;22.06;83.52
40502;BME280;29631;49.168;9.848;2023-05-21T03:58:42;96230.53;;;21.99;83.44
40502;BME280;29631;49.168;9.848;2023-05-21T04:01:08;96159.63;;;21.59;83.54
40502;BME280;29631;49.168;9.848;2023-05-21T04:03:35;96179.88;;;21.70;83.71
40502;BME280;29631;49.168;9.848;2023-05-21T04:06:04;96241.03;;;22.01;83.46
40502;BME280;29631;49.168;9.848;2023-05-21T04:08:30;96218.84;;;21.91;84.05
40502;BME280;29631;49.168;9.848;2023-05-21T04:10:56;96230.59;;;21.94;83.88
40502;BME280;29631;49.168;9.848;2023-05-21T04:13:22;96177.81;;;21.62;83.27
40502;BME280;29631;49.168;9.848;2023-05-21T04:15:48;96242.38;;;21.98;83.86
40502;BME280;29631;49.168;9.848;2023-05-21T04:18:14;96191.31;;;21.57;83.44
40502;BME280;29631;49.168;9.848;2023-05-21T04:20:41;96246.16;;;21.97;84.10
40502;BME280;29631;49.168;9.848;2023-05-21T04:23:08;96237.06;;;21.93;83.97
40502;BME280;29631;49.168;9.848;2023-05-21T04:25:34;96238.97;;;21.93;84.16
40502;BME280;29631;49.168;9.848;2023-05-21T04:28:00;96179.56;;;21.48;83.97
40502;BME280;29631;49.168;9.848;2023-05-21T04:30:26;96246.72;;;21.94;84.05
40502;BME280;29631;49.168;9.848;2023-05-21T04:32:52;96234.50;;;21.84;83.98
40502;BME280;29631;49.168;9.848;2023-05-21T04:35:19;96251.06;;;21.91;83.77
40502;BME280;29631;49.168;9.848;2023-05-21T04:37:45;96253.22;;;21.89;84.31
40502;BME280;29631;49.168;9.848;2023-05-21T04:40:12;96198.78;;;21.60;83.93
40502;BME280;29631;49.168;9.848;2023-05-21T04:42:44;96249.47;;;21.90;84.02
40502;BME280;29631;49.168;9.848;2023-05-21T04:45:16;96268.78;;;21.92;84.19
40502;BME280;29631;49.168;9.848;2023-05-21T04:47:44;96253.53;;;21.87;84.37
40502;BME280;29631;49.168;9.848;2023-05-21T04:50:10;96257.81;;;21.88;84.20
40502;BME280;29631;49.168;9.848;2023-05-21T04:52:37;96236.25;;;21.70;84.51
40502;BME280;29631;49.168;9.848;2023-05-21T04:55:06;96251.41;;;21.84;84.08
40502;BME280;29631;49.168;9.848;2023-05-21T04:57:31;96254.31;;;21.88;84.47
40502;BME280;29631;49.168;9.848;2023-05-21T04:59:57;96253.22;;;21.89;84.16
40502;BME280;29631;49.168;9.848;2023-05-21T05:02:23;96236.13;;;21.80;84.43
40502;BME280;29631;49.168;9.848;2023-05-21T05:04:49;96259.91;;;21.91;84.71
40502;BME280;29631;49.168;9.848;2023-05-21T05:07:14;96215.16;;;21.58;84.58
40502;BME280;29631;49.168;9.848;2023-05-21T05:09:41;96257.22;;;21.91;84.43
40502;BME280;29631;49.168;9.848;2023-05-21T05:12:07;96240.72;;;21.79;84.66
40502;BME280;29631;49.168;9.848;2023-05-21T05:14:32;96249.47;;;21.90;84.46
40502;BME280;29631;49.168;9.848;2023-05-21T05:16:58;96203.06;;;21.61;84.66
40502;BME280;29631;49.168;9.848;2023-05-21T05:19:25;96249.47;;;21.90;84.63
40502;BME280;29631;49.168;9.848;2023-05-21T05:21:51;96206.25;;;21.63;84.61
40502;BME280;29631;49.168;9.848;2023-05-21T05:24:16;96248.38;;;21.91;85.04
40502;BME280;29631;49.168;9.848;2023-05-21T05:26:42;96233.34;;;21.90;84.74
40502;BME280;29631;49.168;9.848;2023-05-21T05:29:08;96229.13;;;21.84;84.61
40502;BME280;29631;49.168;9.848;2023-05-21T05:31:33;96233.13;;;21.86;84.74
40502;BME280;29631;49.168;9.848;2023-05-21T05:33:59;96205.72;;;21.66;84.72
40502;BME280;29631;49.168;9.848;2023-05-21T05:36:25;96242.94;;;21.95;84.44
40502;BME280;29631;49.168;9.848;2023-05-21T05:38:51;96250.94;;;22.00;84.62
40502;BME280;29631;49.168;9.848;2023-05-21T05:41:17;96244.78;;;22.00;85.11
40502;BME280;29631;49.168;9.848;2023-05-21T05:43:43;96246.16;;;21.97;84.63
40502;BME280;29631;49.168;9.848;2023-05-21T05:46:08;96245.50;;;22.05;85.07
40502;BME280;29631;49.168;9.848;2023-05-21T05:48:34;96240.66;;;22.07;84.83
40502;BME280;29631;49.168;9.848;2023-05-21T05:51:00;96251.19;;;22.04;84.87
40502;BME280;29631;49.168;9.848;2023-05-21T05:53:26;96256.22;;;22.10;85.23
40502;BME280;29631;49.168;9.848;2023-05-21T05:55:52;96262.03;;;22.17;85.19
40502;BME280;29631;49.168;9.848;2023-05-21T05:58:17;96239.91;;;22.02;84.92
40502;BME280;29631;49.168;9.848;2023-05-21T06:00:43;96234.28;;;22.03;85.41
40502;BME280;29631;49.168;9.848;2023-05-21T06:03:09;96238.34;;;22.01;85.40
40502;BME280;29631;49.168;9.848;2023-05-21T06:05:36;96253.69;;;22.19;85.46
40502;BME280;29631;49.168;9.848;2023-05-21T06:08:02;96252.38;;;22.16;85.16
40502;BME280;29631;49.168;9.848;2023-05-21T06:10:27;96255.00;;;22.21;85.60
40502;BME280;29631;49.168;9.848;2023-05-21T06:12:53;96220.09;;;21.98;85.22
40502;BME280;29631;49.168;9.848;2023-05-21T06:15:19;96272.13;;;22.30;85.74
40502;BME280;29631;49.168;9.848;2023-05-21T06:17:45;96245.94;;;22.17;85.40
40502;BME280;29631;49.168;9.848;2023-05-21T06:20:11;96256.84;;;22.26;85.65
40502;BME280;29631;49.168;9.848;2023-05-21T06:22:37;96267.53;;;22.31;85.79
40502;BME280;29631;49.168;9.848;2023-05-21T06:25:03;96188.78;;;21.89;85.54
40502;BME280;29631;49.168;9.848;2023-05-21T06:27:30;96243.09;;;22.27;85.61
40502;BME280;29631;49.168;9.848;2023-05-21T06:29:56;96249.25;;;22.33;85.60
40502;BME280;29631;49.168;9.848;2023-05-21T06:32:23;96252.44;;;22.35;85.42
40502;BME280;29631;49.168;9.848;2023-05-21T06:34:49;96256.44;;;22.37;85.67
40502;BME280;29631;49.168;9.848;2023-05-21T06:37:19;96219.63;;;22.14;85.63
40502;BME280;29631;49.168;9.848;2023-05-21T06:39:47;96259.06;;;22.42;85.62
40502;BME280;29631;49.168;9.848;2023-05-21T06:42:13;96216.41;;;22.12;85.33
40502;BME280;29631;49.168;9.848;2023-05-21T06:44:39;96255.78;;;22.45;85.49
40502;BME280;29631;49.168;9.848;2023-05-21T06:47:05;96251.06;;;22.37;85.24
40502;BME280;29631;49.168;9.848;2023-05-21T06:49:31;96261.91;;;22.51;85.26
40502;BME280;29631;49.168;9.848;2023-05-21T06:51:57;96238.28;;;22.29;85.48
40502;BME280;29631;49.168;9.848;2023-05-21T06:54:23;96247.88;;;22.35;85.03
40502;BME280;29631;49.168;9.848;2023-05-21T06:56:49;96263.63;;;22.42;84.90
40502;BME280;29631;49.168;9.848;2023-05-21T06:59:14;96252.22;;;22.31;84.63
40502;BME280;29631;49.168;9.848;2023-05-21T07:01:40;96243.06;;;22.32;84.36
40502;BME280;29631;49.168;9.848;2023-05-21T07:04:09;96230.81;;;22.21;84.86
40502;BME280;29631;49.168;9.848;2023-05-21T07:06:35;96262.03;;;22.41;84.61
40502;BME280;29631;49.168;9.848;2023-05-21T07:09:03;96253.50;;;22.34;84.61
40502;BME280;29631;49.168;9.848;2023-05-21T07:11:30;96274.59;;;22.45;85.04
40502;BME280;29631;49.168;9.848;2023-05-21T07:13:57;96272.22;;;22.44;84.58
40502;BME280;29631;49.168;9.848;2023-05-21T07:16:25;96231.16;;;22.15;84.32
40502;BME280;29631;49.168;9.848;2023-05-21T07:18:50;96272.16;;;22.49;84.63
40502;BME280;29631;49.168;9.848;2023-05-21T07:21:16;96271.06;;;22.50;84.49
40502;BME280;29631;49.168;9.848;2023-05-21T07:23:42;96266.47;;;22.50;84.92
40502;BME280;29631;49.168;9.848;2023-05-21T07:26:09;96208.88;;;22.14;84.98
40502;BME280;29631;49.168;9.848;2023-05-21T07:28:35;96274.97;;;22.57;84.80
40502;BME280;29631;49.168;9.848;2023-05-21T07:31:01;96281.97;;;22.58;84.77
40502;BME280;29631;49.168;9.848;2023-05-21T07:33:27;96245.34;;;22.44;84.78
40502;BME280;29631;49.168;9.848;2023-05-21T07:35:53;96265.97;;;22.48;84.38
40502;BME280;29631;49.168;9.848;2023-05-21T07:38:18;96262.59;;;22.61;84.76
40502;BME280;29631;49.168;9.848;2023-05-21T07:40:44;96280.75;;;22.69;84.96
40502;BME280;29631;49.168;9.848;2023-05-21T07:43:11;96284.16;;;22.74;84.62
40502;BME280;29631;49.168;9.848;2023-05-21T07:45:37;96273.19;;;22.71;84.92
40502;BME280;29631;49.168;9.848;2023-05-21T07:48:03;96283.28;;;22.79;85.02
40502;BME280;29631;49.168;9.848;2023-05-21T07:50:29;96266.16;;;22.75;85.11
40502;BME280;29631;49.168;9.848;2023-05-21T07:52:54;96289.63;;;22.88;84.89
40502;BME280;29631;49.168;9.848;2023-05-21T07:55:20;96272.47;;;22.84;85.19
40502;BME280;29631;49.168;9.848;2023-05-21T07:57:46;96277.50;;;22.90;85.23
40502;BME280;29631;49.168;9.848;2023-05-21T08:00:12;96281.50;;;22.93;85.29
40502;BME280;29631;49.168;9.848;2023-05-21T08:02:39;96279.81;;;22.97;85.27
40502;BME280;29631;49.168;9.848;2023-05-21T08:05:05;96304.78;;;23.02;84.92
40502;BME280;29631;49.168;9.848;2023-05-21T08:07:31;96271.81;;;22.92;85.12
40502;BME280;29631;49.168;9.848;2023-05-21T08:09:58;96283.25;;;23.02;84.74
40502;BME280;29631;49.168;9.848;2023-05-21T08:12:24;96275.97;;;23.03;84.97
40502;BME280;29631;49.168;9.848;2023-05-21T08:14:50;96256.75;;;22.91;84.57
40502;BME280;29631;49.168;9.848;2023-05-21T08:17:15;96237.03;;;22.82;85.11
40502;BME280;29631;49.168;9.848;2023-05-21T08:19:41;96241.22;;;22.88;84.80
40502;BME280;29631;49.168;9.848;2023-05-21T08:22:07;96270.38;;;23.18;84.78
40502;BME280;29631;49.168;9.848;2023-05-21T08:24:33;96275.66;;;23.23;84.69
40502;BME280;29631;49.168;9.848;2023-05-21T08:26:59;96266.00;;;23.22;84.88
40502;BME280;29631;49.168;9.848;2023-05-21T08:29:25;96267.50;;;23.28;84.68
40502;BME280;29631;49.168;9.848;2023-05-21T08:31:50;96234.97;;;23.11;84.98
40502;BME280;29631;49.168;9.848;2023-05-21T08:34:16;96268.97;;;23.39;85.37
40502;BME280;29631;49.168;9.848;2023-05-21T08:36:43;96282.25;;;23.48;85.40
40502;BME280;29631;49.168;9.848;2023-05-21T08:39:11;96275.69;;;23.54;85.20
40502;BME280;29631;49.168;9.848;2023-05-21T08:41:40;96287.59;;;23.67;85.44
40502;BME280;29631;49.168;9.848;2023-05-21T08:44:11;96268.63;;;23.58;85.55
40502;BME280;29631;49.168;9.848;2023-05-21T08:46:39;96266.56;;;23.69;86.04
40502;BME280;29631;49.168;9.848;2023-05-21T08:49:11;96288.47;;;23.81;86.18
40502;BME280;29631;49.168;9.848;2023-05-21T08:51:38;96271.47;;;23.80;86.07
40502;BME280;29631;49.168;9.848;2023-05-21T08:54:04;96228.25;;;23.58;85.86
40502;BME280;29631;49.168;9.848;2023-05-21T08:56:31;96243.03;;;23.74;85.93
40502;BME280;29631;49.168;9.848;2023-05-21T08:58:58;96264.72;;;23.96;85.88
40502;BME280;29631;49.168;9.848;2023-05-21T09:01:24;96246.47;;;23.93;85.69
40502;BME280;29631;49.168;9.848;2023-05-21T09:03:51;96270.84;;;24.15;85.82
40502;BME280;29631;49.168;9.848;2023-05-21T09:06:19;96286.31;;;24.23;85.58
40502;BME280;29631;49.168;9.848;2023-05-21T09:08:54;96272.53;;;24.24;85.36
40502;BME280;29631;49.168;9.848;2023-05-21T09:11:25;96266.72;;;24.31;85.32
40502;BME280;29631;49.168;9.848;2023-05-21T09:13:52;96288.03;;;24.46;85.25
40502;BME280;29631;49.168;9.848;2023-05-21T09:16:18;96285.34;;;24.46;85.09
40502;BME280;29631;49.168;9.848;2023-05-21T09:18:44;96287.31;;;24.54;85.39
40502;BME280;29631;49.168;9.848;2023-05-21T09:21:29;96277.72;;;24.61;84.97
40502;BME280;29631;49.168;9.848;2023-05-21T09:23:57;96261.34;;;24.58;85.09
40502;BME280;29631;49.168;9.848;2023-05-21T09:26:24;96278.31;;;24.72;85.25
40502;BME280;29631;49.168;9.848;2023-05-21T09:28:51;96259.44;;;24.72;84.96
40502;BME280;29631;49.168;9.848;2023-05-21T09:31:22;96268.59;;;24.84;84.89
40502;BME280;29631;49.168;9.848;2023-05-21T09:33:49;96269.66;;;24.96;84.63
40502;BME280;29631;49.168;9.848;2023-05-21T09:36:20;96259.25;;;25.03;84.59
40502;BME280;29631;49.168;9.848;2023-05-21T09:38:50;96242.06;;;24.99;84.28
40502;BME280;29631;49.168;9.848;2023-05-21T09:41:17;96258.81;;;25.23;84.25
40502;BME280;29631;49.168;9.848;2023-05-21T09:43:43;96250.69;;;25.23;83.98
40502;BME280;29631;49.168;9.848;2023-05-21T09:46:09;96250.75;;;25.32;83.88
40502;BME280;29631;49.168;9.848;2023-05-21T09:48:42;96279.66;;;25.53;83.33
40502;BME280;29631;49.168;9.848;2023-05-21T09:51:15;96276.53;;;25.60;83.33
40502;BME280;29631;49.168;9.848;2023-05-21T09:53:54;96274.38;;;25.70;82.91
40502;BME280;29631;49.168;9.848;2023-05-21T09:56:27;96224.66;;;25.49;82.81
40502;BME280;29631;49.168;9.848;2023-05-21T09:59:01;96262.38;;;25.76;82.15
40502;BME280;29631;49.168;9.848;2023-05-21T10:01:30;96273.25;;;25.93;82.38
40502;BME280;29631;49.168;9.848;2023-05-21T10:04:00;96274.44;;;26.00;81.87
40502;BME280;29631;49.168;9.848;2023-05-21T10:06:29;96280.34;;;26.11;82.00
40502;BME280;29631;49.168;9.848;2023-05-21T10:08:58;96272.91;;;26.16;82.13
40502;BME280;29631;49.168;9.848;2023-05-21T10:11:26;96270.69;;;26.18;81.66
40502;BME280;29631;49.168;9.848;2023-05-21T10:14:00;96277.56;;;26.33;81.46
40502;BME280;29631;49.168;9.848;2023-05-21T10:16:29;96240.91;;;26.10;80.91
40502;BME280;29631;49.168;9.848;2023-05-21T10:18:57;96282.44;;;26.44;81.28
40502;BME280;29631;49.168;9.848;2023-05-21T10:21:23;96276.06;;;26.48;81.46
40502;BME280;29631;49.168;9.848;2023-05-21T10:23:50;96274.81;;;26.54;80.76
40502;BME280;29631;49.168;9.848;2023-05-21T10:26:18;96273.56;;;26.60;80.42
40502;BME280;29631;49.168;9.848;2023-05-21T10:28:48;96273.72;;;26.64;80.60
40502;BME280;29631;49.168;9.848;2023-05-21T10:31:15;96279.31;;;26.76;80.70
40502;BME280;29631;49.168;9.848;2023-05-21T10:33:42;96250.31;;;26.59;80.61
40502;BME280;29631;49.168;9.848;2023-05-21T10:36:08;96274.22;;;26.74;80.22
40502;BME280;29631;49.168;9.848;2023-05-21T10:38:36;96270.72;;;26.82;80.19
40502;BME280;29631;49.168;9.848;2023-05-21T10:41:04;96273.75;;;26.89;79.37
40502;BME280;29631;49.168;9.848;2023-05-21T10:44:00;96281.44;;;26.96;79.45
40502;BME280;29631;49.168;9.848;2023-05-21T10:47:06;96276.22;;;26.99;79.29
40502;BME280;29631;49.168;9.848;2023-05-21T10:56:17;96279.09;;;27.11;78.99
40502;BME280;29631;49.168;9.848;2023-05-21T10:59:13;96266.81;;;27.05;78.49
40502;BME280;29631;49.168;9.848;2023-05-21T11:01:43;96274.78;;;27.18;78.36
40502;BME280;29631;49.168;9.848;2023-05-21T11:04:10;96277.81;;;27.17;78.21
40502;BME280;29631;49.168;9.848;2023-05-21T11:06:36;96275.44;;;27.16;78.53
40502;BME280;29631;49.168;9.848;2023-05-21T11:09:12;96281.16;;;27.22;77.49
40502;BME280;29631;49.168;9.848;2023-05-21T11:11:44;96274.31;;;27.25;77.74
40502;BME280;29631;49.168;9.848;2023-05-21T11:14:45;96269.34;;;27.27;77.97
40502;BME280;29631;49.168;9.848;2023-05-21T11:17:38;96262.66;;;27.24;77.76
40502;BME280;29631;49.168;9.848;2023-05-21T11:20:11;96270.94;;;27.36;77.56
40502;BME280;29631;49.168;9.848;2023-05-21T11:22:41;96261.88;;;27.32;77.28
40502;BME280;29631;49.168;9.848;2023-05-21T11:25:07;96275.88;;;27.43;77.28
40502;BME280;29631;49.168;9.848;2023-05-21T11:27:40;96275.88;;;27.43;76.82
40502;BME280;29631;49.168;9.848;2023-05-21T11:30:14;96287.97;;;27.54;76.16
40502;BME280;29631;49.168;9.848;2023-05-21T11:38:09;96276.19;;;27.58;76.43
40502;BME280;29631;49.168;9.848;2023-05-21T11:40:35;96251.50;;;27.51;76.75
40502;BME280;29631;49.168;9.848;2023-05-21T11:43:01;96261.72;;;27.63;76.61
40502;BME280;29631;49.168;9.848;2023-05-21T11:45:29;96213.59;;;27.34;76.22
40502;BME280;29631;49.168;9.848;2023-05-21T11:47:56;96264.56;;;27.75;76.52
40502;BME280;29631;49.168;9.848;2023-05-21T11:50:21;96249.72;;;27.81;76.72
40502;BME280;29631;49.168;9.848;2023-05-21T11:52:48;96247.16;;;27.84;76.94
40502;BME280;29631;49.168;9.848;2023-05-21T11:55:23;96260.81;;;27.96;76.40
40502;BME280;29631;49.168;9.848;2023-05-21T11:57:52;96256.03;;;28.01;75.95
40502;BME280;29631;49.168;9.848;2023-05-21T12:00:18;96265.59;;;28.07;76.63
40502;BME280;29631;49.168;9.848;2023-05-21T12:02:50;96269.56;;;28.10;75.81
40502;BME280;29631;49.168;9.848;2023-05-21T12:05:16;96263.31;;;28.18;76.23
40502;BME280;29631;49.168;9.848;2023-05-21T12:07:46;96266.31;;;28.16;76.26
40502;BME280;29631;49.168;9.848;2023-05-21T12:10:15;96266.00;;;28.26;76.18
40502;BME280;29631;49.168;9.848;2023-05-21T12:12:41;96255.94;;;28.27;76.30
40502;BME280;29631;49.168;9.848;2023-05-21T12:15:08;96268.34;;;28.36;76.14
40502;BME280;29631;49.168;9.848;2023-05-21T12:17:34;96268.84;;;28.38;76.17
40502;BME280;29631;49.168;9.848;2023-05-21T12:20:00;96277.25;;;28.45;76.30
40502;BME280;29631;49.168;9.848;2023-05-21T12:22:26;96273.28;;;28.43;75.42
40502;BME280;29631;49.168;9.848;2023-05-21T12:24:53;96281.09;;;28.44;74.70
40502;BME280;29631;49.168;9.848;2023-05-21T12:27:21;96262.94;;;28.36;74.57
40502;BME280;29631;49.168;9.848;2023-05-21T12:29:49;96273.13;;;28.39;74.08
40502;BME280;29631;49.168;9.848;2023-05-21T12:32:16;96276.78;;;28.43;73.60
40502;BME280;29631;49.168;9.848;2023-05-21T12:34:53;96280.63;;;28.42;73.92
40502;BME280;29631;49.168;9.848;2023-05-21T12:37:25;96278.72;;;28.43;73.95
40502;BME280;29631;49.168;9.848;2023-05-21T12:39:54;96275.84;;;28.39;73.84
40502;BME280;29631;49.168;9.848;2023-05-21T12:42:31;96282.69;;;28.45;74.08
40502;BME280;29631;49.168;9.848;2023-05-21T12:45:05;96283.47;;;28.46;74.25
40502;BME280;29631;49.168;9.848;2023-05-21T12:47:31;96289.84;;;28.50;74.63
40502;BME280;29631;49.168;9.848;2023-05-21T12:50:00;96283.75;;;28.53;74.54
40502;BME280;29631;49.168;9.848;2023-05-21T12:52:26;96282.19;;;28.52;74.60
40502;BME280;29631;49.168;9.848;2023-05-21T12:54:54;96279.00;;;28.50;74.82
40502;BME280;29631;49.168;9.848;2023-05-21T12:57:22;96278.03;;;28.54;74.92
40502;BME280;29631;49.168;9.848;2023-05-21T12:59:54;96269.91;;;28.46;75.25
40502;BME280;29631;49.168;9.848;2023-05-21T13:02:41;96293.16;;;28.64;75.02
40502;BME280;29631;49.168;9.848;2023-05-21T13:05:09;96293.59;;;28.65;74.54
40502;BME280;29631;49.168;9.848;2023-05-21T13:07:38;96284.84;;;28.60;74.38
40502;BME280;29631;49.168;9.848;2023-05-21T13:10:05;96283.75;;;28.61;74.75
40502;BME280;29631;49.168;9.848;2023-05-21T13:12:32;96284.03;;;28.60;74.62
40502;BME280;29631;49.168;9.848;2023-05-21T13:15:00;96292.03;;;28.65;74.74
40502;BME280;29631;49.168;9.848;2023-05-21T13:17:27;96282.94;;;28.61;74.58